createdAt,value
2018-08-24T00:01:52.073Z,45.58
2018-08-24T00:04:22.520Z,45.75
2018-08-24T00:06:55.069Z,45.43
2018-08-24T00:09:28.366Z,45.68
2018-08-24T00:12:01.729Z,45.60
2018-08-24T00:14:31.243Z,45.62
2018-08-24T00:17:02.231Z,46.47
2018-08-24T00:19:32.390Z,46.73
2018-08-24T00:22:02.627Z,46.58
2018-08-24T00:24:33.544Z,46.83
2018-08-24T00:27:02.874Z,46.46
2018-08-24T00:29:33.484Z,46.87
2018-08-24T00:32:04.508Z,47.23
2018-08-24T00:34:36.480Z,46.37
2018-08-24T00:37:06.725Z,47.06
2018-08-24T00:39:37.056Z,46.95
2018-08-24T00:42:07.438Z,47.14
2018-08-24T00:44:38.261Z,47.24
2018-08-24T00:47:09.610Z,47.11
2018-08-24T00:49:40.064Z,46.99
2018-08-24T00:52:10.892Z,47.09
2018-08-24T00:54:41.527Z,47.43
2018-08-24T00:57:13.040Z,47.09
2018-08-24T00:59:44.352Z,47.08
2018-08-24T01:02:15.343Z,47.79
2018-08-24T01:04:45.818Z,47.17
2018-08-24T01:07:15.904Z,46.63
2018-08-24T01:09:46.214Z,46.67
2018-08-24T01:12:18.457Z,47.04
2018-08-24T01:14:50.037Z,46.56
2018-08-24T01:17:25.406Z,46.38
2018-08-24T01:19:55.035Z,45.12
2018-08-24T01:22:26.282Z,44.47
2018-08-24T01:24:55.726Z,44.71
2018-08-24T01:27:25.239Z,45.04
2018-08-24T01:29:57.537Z,44.44
2018-08-24T01:32:30.971Z,44.30
2018-08-24T01:35:04.276Z,44.56
2018-08-24T01:37:34.265Z,45.16
2018-08-24T01:40:04.554Z,44.32
2018-08-24T01:42:34.846Z,44.77
2018-08-24T01:45:06.039Z,43.72
2018-08-24T01:47:36.670Z,43.29
2018-08-24T01:50:09.058Z,43.81
2018-08-24T01:52:40.495Z,43.76
2018-08-24T01:55:10.034Z,44.05
2018-08-24T01:57:39.306Z,43.88
2018-08-24T02:00:16.209Z,44.00
2018-08-24T02:02:47.820Z,44.19
2018-08-24T02:05:20.577Z,44.29
2018-08-24T02:07:52.251Z,44.17
2018-08-24T02:10:29.271Z,44.05
2018-08-24T02:13:05.625Z,44.25
2018-08-24T02:15:37.481Z,45.06
2018-08-24T02:19:14.830Z,45.42
2018-08-24T02:21:50.036Z,45.87
2018-08-24T02:24:19.674Z,46.04
2018-08-24T02:26:48.999Z,46.11
2018-08-24T02:29:18.373Z,46.16
2018-08-24T02:31:52.886Z,47.36
2018-08-24T02:34:22.517Z,47.47
2018-08-24T02:36:55.006Z,47.72
2018-08-24T02:39:26.255Z,48.77
2018-08-24T02:41:55.687Z,48.61
2018-08-24T02:44:25.627Z,48.49
2018-08-24T02:46:56.808Z,48.26
2018-08-24T02:49:28.822Z,48.44
2018-08-24T02:51:58.903Z,47.98
2018-08-24T02:54:31.802Z,49.07
2018-08-24T02:57:04.344Z,48.29
2018-08-24T02:59:35.864Z,48.36
2018-08-24T03:02:06.533Z,49.10
2018-08-24T03:04:39.414Z,49.15
2018-08-24T03:07:11.672Z,48.51
2018-08-24T03:09:43.927Z,48.13
2018-08-24T03:12:15.331Z,47.80
2018-08-24T03:14:47.625Z,48.37
2018-08-24T03:17:25.051Z,48.70
2018-08-24T03:19:57.469Z,48.92
2018-08-24T03:22:30.222Z,48.85
2018-08-24T03:25:01.859Z,48.79
2018-08-24T03:27:34.304Z,48.50
2018-08-24T03:30:07.284Z,49.72
2018-08-24T03:32:38.578Z,49.42
2018-08-24T03:35:10.624Z,49.80
2018-08-24T03:37:44.686Z,49.19
2018-08-24T03:40:16.995Z,49.65
2018-08-24T03:42:48.203Z,50.50
2018-08-24T03:45:22.879Z,49.86
2018-08-24T03:47:54.213Z,50.11
2018-08-24T03:50:26.753Z,50.24
2018-08-24T03:52:57.981Z,50.27
2018-08-24T03:55:33.612Z,50.75
2018-08-24T03:58:03.833Z,50.88
2018-08-24T04:00:36.678Z,49.20
2018-08-24T04:03:09.923Z,50.10
2018-08-24T04:05:42.674Z,50.09
2018-08-24T04:08:13.569Z,50.54
2018-08-24T04:10:46.414Z,50.60
2018-08-24T04:13:17.177Z,50.80
2018-08-24T04:15:49.160Z,50.04
2018-08-24T04:18:21.362Z,49.94
2018-08-24T04:20:53.791Z,50.58
2018-08-24T04:23:27.149Z,51.03
2018-08-24T04:25:59.117Z,50.87
2018-08-24T04:28:32.241Z,51.07
2018-08-24T04:31:04.261Z,51.39
2018-08-24T04:33:36.477Z,50.27
2018-08-24T04:36:07.603Z,50.61
2018-08-24T04:38:39.359Z,50.76
2018-08-24T04:41:11.439Z,51.36
2018-08-24T04:43:43.679Z,50.46
2018-08-24T04:46:15.405Z,51.04
2018-08-24T04:48:47.612Z,51.07
2018-08-24T04:51:20.014Z,51.35
2018-08-24T04:53:52.165Z,51.84
2018-08-24T04:56:24.443Z,50.99
2018-08-24T04:58:56.351Z,50.37
2018-08-24T05:01:28.852Z,49.55
2018-08-24T05:04:01.051Z,49.87
2018-08-24T05:06:32.858Z,49.34
2018-08-24T05:09:05.989Z,49.46
2018-08-24T05:11:37.341Z,48.83
2018-08-24T05:14:09.457Z,48.31
2018-08-24T05:16:42.576Z,48.56
2018-08-24T05:19:17.575Z,48.54
2018-08-24T05:21:52.574Z,48.23
2018-08-24T05:24:25.685Z,48.57
2018-08-24T05:26:58.685Z,49.10
2018-08-24T05:29:32.673Z,47.99
2018-08-24T05:32:05.000Z,46.86
2018-08-24T05:34:37.438Z,46.80
2018-08-24T05:37:09.727Z,46.78
2018-08-24T05:39:42.479Z,45.59
2018-08-24T05:42:15.271Z,45.43
2018-08-24T05:44:45.405Z,43.37
2018-08-24T05:47:19.842Z,43.60
2018-08-24T05:49:51.672Z,43.31
2018-08-24T05:52:25.497Z,42.74
2018-08-24T05:54:58.503Z,41.11
2018-08-24T05:57:31.751Z,41.58
2018-08-24T06:00:06.478Z,40.31
2018-08-24T06:02:39.903Z,38.24
2018-08-24T06:05:14.544Z,36.98
2018-08-24T06:07:48.198Z,36.51
2018-08-24T06:10:20.585Z,36.30
2018-08-24T06:12:54.061Z,35.88
2018-08-24T06:15:26.907Z,34.73
2018-08-24T06:18:01.606Z,34.82
2018-08-24T06:20:35.710Z,34.26
2018-08-24T06:23:16.511Z,33.37
2018-08-24T06:25:50.039Z,32.52
2018-08-24T06:28:23.336Z,32.29
2018-08-24T06:30:57.002Z,31.12
2018-08-24T06:33:32.372Z,31.71
2018-08-24T06:36:07.160Z,30.96
2018-08-24T06:38:40.787Z,31.10
2018-08-24T06:41:14.773Z,31.94
2018-08-24T06:43:48.349Z,31.44
2018-08-24T06:46:22.347Z,31.04
2018-08-24T06:48:56.218Z,31.30
2018-08-24T06:51:29.998Z,32.50
2018-08-24T06:54:03.600Z,32.18
2018-08-24T06:56:37.066Z,31.60
2018-08-24T06:59:12.879Z,31.94
2018-08-24T07:01:49.667Z,33.18
2018-08-24T07:04:27.372Z,33.60
2018-08-24T07:07:00.793Z,33.49
2018-08-24T07:09:37.309Z,34.44
2018-08-24T07:12:12.734Z,34.82
2018-08-24T07:14:46.814Z,36.02
2018-08-24T07:17:25.236Z,35.48
2018-08-24T07:19:59.333Z,35.19
2018-08-24T07:22:31.128Z,35.68
2018-08-24T07:25:04.391Z,35.63
2018-08-24T07:27:38.570Z,34.67
2018-08-24T07:30:16.078Z,34.73
2018-08-24T07:32:50.696Z,34.61
2018-08-24T07:35:23.365Z,35.04
2018-08-24T07:37:56.608Z,35.16
2018-08-24T07:40:29.352Z,35.35
2018-08-24T07:43:03.429Z,33.65
2018-08-24T07:45:40.644Z,33.76
2018-08-24T07:48:12.391Z,34.42
2018-08-24T07:50:44.769Z,34.24
2018-08-24T07:53:19.200Z,34.47
2018-08-24T07:55:51.627Z,33.96
2018-08-24T07:58:37.421Z,34.92
2018-08-24T08:01:09.842Z,35.67
2018-08-24T08:03:42.526Z,35.93
2018-08-24T08:06:17.068Z,35.66
2018-08-24T08:08:52.564Z,36.06
2018-08-24T08:11:26.682Z,35.01
2018-08-24T08:14:11.425Z,35.33
2018-08-24T08:16:45.574Z,35.36
2018-08-24T08:19:17.670Z,34.84
2018-08-24T08:21:49.402Z,33.58
2018-08-24T08:24:21.767Z,33.20
2018-08-24T08:26:54.793Z,32.35
2018-08-24T08:29:30.184Z,32.81
2018-08-24T08:32:02.020Z,32.60
2018-08-24T08:34:36.896Z,32.69
2018-08-24T08:37:08.240Z,32.67
2018-08-24T08:39:39.597Z,32.67
2018-08-24T08:42:11.682Z,32.78
2018-08-24T08:44:42.830Z,32.74
2018-08-24T08:47:14.038Z,32.28
2018-08-24T08:49:45.085Z,31.83
2018-08-24T08:52:22.625Z,31.47
2018-08-24T08:54:54.320Z,32.01
2018-08-24T08:57:26.004Z,30.99
2018-08-24T08:59:57.945Z,31.51
2018-08-24T09:02:28.381Z,32.57
2018-08-24T09:04:59.464Z,33.94
2018-08-24T09:07:29.779Z,35.79
2018-08-24T09:10:01.969Z,35.61
2018-08-24T09:12:32.240Z,36.67
2018-08-24T09:15:02.381Z,37.68
2018-08-24T09:17:38.103Z,37.33
2018-08-24T09:20:13.843Z,37.53
2018-08-24T09:22:49.788Z,37.71
2018-08-24T09:25:25.283Z,38.20
2018-08-24T09:28:01.286Z,37.08
2018-08-24T09:30:41.231Z,38.91
2018-08-24T09:33:12.245Z,41.27
2018-08-24T09:35:47.603Z,41.58
2018-08-24T09:38:19.148Z,43.09
2018-08-24T09:40:54.136Z,44.26
2018-08-24T09:43:33.684Z,44.27
2018-08-24T09:46:05.736Z,44.15
2018-08-24T09:48:40.982Z,46.21
2018-08-24T09:51:17.103Z,46.92
2018-08-24T09:53:54.688Z,46.62
2018-08-24T09:56:28.179Z,46.72
2018-08-24T09:59:01.657Z,47.70
2018-08-24T10:01:38.369Z,47.69
2018-08-24T10:04:15.155Z,48.14
2018-08-24T10:06:50.745Z,47.26
2018-08-24T10:09:21.055Z,47.52
2018-08-24T10:11:51.727Z,46.71
2018-08-24T10:14:23.189Z,46.33
2018-08-24T10:16:53.957Z,45.82
2018-08-24T10:19:25.071Z,46.71
2018-08-24T10:21:57.287Z,48.25
2018-08-24T10:24:27.708Z,48.12
2018-08-24T10:26:58.607Z,45.97
2018-08-24T10:29:29.166Z,48.04
2018-08-24T10:32:02.365Z,47.07
2018-08-24T10:34:32.748Z,45.99
2018-08-24T10:37:05.453Z,46.17
2018-08-24T10:39:36.181Z,45.68
2018-08-24T10:42:08.277Z,46.43
2018-08-24T10:44:40.631Z,45.41
2018-08-24T10:47:11.689Z,46.21
2018-08-24T10:49:44.519Z,44.97
2018-08-24T10:52:16.771Z,44.50
2018-08-24T10:54:47.085Z,44.41
2018-08-24T10:57:18.384Z,44.03
2018-08-24T10:59:49.202Z,43.75
2018-08-24T11:02:19.875Z,43.93
2018-08-24T11:04:53.666Z,44.54
2018-08-24T11:07:25.628Z,43.17
2018-08-24T11:09:56.070Z,42.18
2018-08-24T11:12:32.924Z,42.02
2018-08-24T11:15:05.087Z,40.94
2018-08-24T11:17:40.304Z,40.81
2018-08-24T11:20:10.490Z,41.22
2018-08-24T11:22:39.645Z,39.95
2018-08-24T11:25:11.631Z,41.06
2018-08-24T11:27:41.769Z,40.59
2018-08-24T11:30:15.222Z,40.99
2018-08-24T11:32:46.426Z,40.34
2018-08-24T11:35:16.650Z,37.89
2018-08-24T11:37:49.215Z,38.60
2018-08-24T11:40:18.551Z,38.93
2018-08-24T11:42:48.454Z,37.11
2018-08-24T11:45:19.235Z,35.82
2018-08-24T11:47:50.075Z,36.24
2018-08-24T11:50:20.403Z,35.64
2018-08-24T11:52:51.059Z,34.69
2018-08-24T11:55:22.482Z,34.41
2018-08-24T11:57:52.763Z,33.52
2018-08-24T12:00:31.876Z,33.14
2018-08-24T12:03:03.395Z,33.95
2018-08-24T12:05:35.679Z,33.56
2018-08-24T12:08:06.868Z,34.68
2018-08-24T12:10:37.146Z,34.52
2018-08-24T12:13:06.772Z,33.83
2018-08-24T12:15:36.067Z,33.71
2018-08-24T12:18:06.437Z,33.38
2018-08-24T12:20:37.057Z,31.18
2018-08-24T12:23:07.225Z,31.22
2018-08-24T12:25:37.341Z,30.63
2018-08-24T12:28:08.144Z,30.27
2018-08-24T12:30:39.383Z,29.73
2018-08-24T12:33:09.586Z,31.07
2018-08-24T12:35:40.211Z,31.86
2018-08-24T12:38:10.577Z,32.90
2018-08-24T12:40:40.297Z,31.98
2018-08-24T12:43:13.219Z,31.71
2018-08-24T12:45:44.381Z,30.84
2018-08-24T12:48:16.673Z,31.40
2018-08-24T12:50:49.006Z,31.29
2018-08-24T12:53:20.438Z,32.02
2018-08-24T12:55:52.204Z,31.03
2018-08-24T12:58:26.732Z,30.27
2018-08-24T13:00:58.462Z,29.66
2018-08-24T13:03:28.529Z,30.47
2018-08-24T13:06:01.061Z,30.09
2018-08-24T13:08:31.714Z,29.51
2018-08-24T13:11:02.883Z,30.13
2018-08-24T13:13:32.878Z,29.85
2018-08-24T13:16:03.115Z,30.43
2018-08-24T13:18:33.908Z,29.60
2018-08-24T13:21:04.994Z,29.30
2018-08-24T13:23:34.371Z,30.10
2018-08-24T13:26:05.226Z,30.78
2018-08-24T13:28:35.398Z,29.85
2018-08-24T13:31:08.998Z,29.63
2018-08-24T13:33:39.705Z,30.59
2018-08-24T13:36:09.896Z,30.07
2018-08-24T13:38:42.457Z,29.42
2018-08-24T13:41:14.402Z,29.10
2018-08-24T13:43:46.468Z,29.55
2018-08-24T13:46:19.994Z,29.57
2018-08-24T13:48:51.272Z,28.43
2018-08-24T13:51:21.710Z,27.84
2018-08-24T13:53:52.392Z,28.47
2018-08-24T13:56:22.479Z,27.55
2018-08-24T13:58:52.751Z,26.99
2018-08-24T14:01:22.954Z,27.06
2018-08-24T14:03:53.212Z,26.50
2018-08-24T14:06:23.377Z,27.19
2018-08-24T14:08:54.371Z,26.93
2018-08-24T14:11:25.663Z,27.49
2018-08-24T14:13:58.187Z,28.13
2018-08-24T14:16:28.552Z,26.70
2018-08-24T14:19:02.626Z,27.47
2018-08-24T14:21:32.883Z,26.30
2018-08-24T14:24:08.370Z,26.43
2018-08-24T14:26:40.530Z,26.12
2018-08-24T14:29:12.378Z,25.91
2018-08-24T14:31:43.894Z,24.25
2018-08-24T14:34:14.317Z,23.35
2018-08-24T14:36:46.452Z,24.10
2018-08-24T14:39:17.790Z,22.99
2018-08-24T14:41:48.552Z,21.71
2018-08-24T14:44:20.173Z,19.93
2018-08-24T14:46:52.432Z,19.71
2018-08-24T14:49:25.344Z,19.89
2018-08-24T14:51:59.183Z,20.34
2018-08-24T14:54:31.127Z,19.95
2018-08-24T14:57:02.571Z,19.95
2018-08-24T14:59:34.348Z,20.20
2018-08-24T15:02:06.468Z,20.57
2018-08-24T15:04:44.014Z,19.88
2018-08-24T15:07:15.468Z,19.89
2018-08-24T15:09:46.450Z,19.69
2018-08-24T15:12:18.293Z,20.48
2018-08-24T15:14:52.109Z,20.88
2018-08-24T15:17:24.609Z,21.01
2018-08-24T15:19:54.803Z,19.60
2018-08-24T15:22:26.351Z,19.84
2018-08-24T15:24:56.533Z,19.25
2018-08-24T15:27:27.591Z,19.21
2018-08-24T15:32:38.582Z,19.21
2018-08-24T15:35:08.780Z,20.54
2018-08-24T15:37:39.338Z,20.03
2018-08-24T15:40:10.438Z,20.87
2018-08-24T15:42:41.806Z,21.12
2018-08-24T15:45:14.325Z,20.47
2018-08-24T15:47:45.032Z,20.13
2018-08-24T15:50:16.252Z,20.85
2018-08-24T15:52:46.445Z,21.08
2018-08-24T15:55:18.438Z,20.80
2018-08-24T16:00:15.302Z,21.94
2018-08-24T16:02:46.435Z,22.06
2018-08-24T16:05:18.124Z,22.33
2018-08-24T16:07:48.259Z,22.16
2018-08-24T16:10:19.465Z,22.12
2018-08-24T16:12:51.797Z,22.70
2018-08-24T16:15:27.099Z,22.52
2018-08-24T16:18:02.501Z,21.82
2018-08-24T16:20:33.648Z,21.83
2018-08-24T16:23:03.968Z,22.42
2018-08-24T16:25:36.433Z,22.45
2018-08-24T16:28:08.660Z,21.96
2018-08-24T16:30:40.527Z,22.84
2018-08-24T16:33:15.277Z,22.56
2018-08-24T16:35:47.369Z,22.51
2018-08-24T16:38:19.060Z,23.17
2018-08-24T16:40:49.711Z,22.71
2018-08-24T16:43:22.344Z,22.50
2018-08-24T16:45:56.413Z,22.88
2018-08-24T16:48:27.836Z,22.72
2018-08-24T16:50:59.705Z,22.54
2018-08-24T16:53:30.341Z,22.71
2018-08-24T16:56:01.340Z,22.12
2018-08-24T16:58:32.532Z,22.98
2018-08-24T17:01:03.178Z,22.41
2018-08-24T17:03:35.283Z,22.61
2018-08-24T17:06:05.524Z,23.18
2018-08-24T17:08:37.807Z,22.71
2018-08-24T17:11:10.332Z,23.22
2018-08-24T17:13:41.613Z,23.74
2018-08-24T17:16:11.799Z,23.81
2018-08-24T17:18:43.643Z,23.80
2018-08-24T17:21:14.952Z,23.77
2018-08-24T17:23:48.387Z,23.25
2018-08-24T17:26:19.523Z,23.49
2018-08-24T17:28:51.532Z,23.77
2018-08-24T17:31:26.492Z,24.30
2018-08-24T17:33:59.580Z,23.86
2018-08-24T17:36:30.736Z,24.21
2018-08-24T17:39:03.641Z,24.15
2018-08-24T17:41:34.161Z,24.78
2018-08-24T17:44:05.184Z,24.15
2018-08-24T17:46:36.348Z,24.43
2018-08-24T17:49:07.690Z,24.21
2018-08-24T17:51:38.760Z,23.81
2018-08-24T17:54:11.137Z,24.04
2018-08-24T17:56:42.002Z,23.58
2018-08-24T17:59:13.449Z,24.37
2018-08-24T18:01:48.280Z,24.50
2018-08-24T18:04:19.375Z,24.78
2018-08-24T18:06:50.504Z,24.34
2018-08-24T18:09:21.478Z,25.00
2018-08-24T18:11:52.515Z,24.52
2018-08-24T18:14:23.859Z,24.51
2018-08-24T18:16:56.446Z,24.80
2018-08-24T18:19:27.332Z,24.68
2018-08-24T18:21:58.303Z,24.86
2018-08-24T18:24:29.381Z,25.18
2018-08-24T18:27:04.724Z,24.95
2018-08-24T18:29:35.637Z,25.23
2018-08-24T18:32:07.418Z,24.74
2018-08-24T18:34:39.575Z,25.10
2018-08-24T18:37:10.626Z,25.01
2018-08-24T18:39:43.686Z,25.00
2018-08-24T18:42:14.772Z,25.00
2018-08-24T18:44:47.988Z,24.97
2018-08-24T18:47:21.555Z,24.44
2018-08-24T18:49:54.458Z,24.53
2018-08-24T18:52:27.200Z,23.87
2018-08-24T18:54:58.598Z,24.21
2018-08-24T18:57:30.354Z,23.93
2018-08-24T19:00:02.435Z,23.67
2018-08-24T19:02:35.174Z,24.18
2018-08-24T19:05:06.634Z,23.92
2018-08-24T19:07:37.935Z,23.87
2018-08-24T19:10:10.584Z,24.68
2018-08-24T19:12:43.937Z,24.07
2018-08-24T19:15:16.104Z,24.33
2018-08-24T19:17:52.092Z,24.21
2018-08-24T19:20:28.763Z,24.26
2018-08-24T19:23:00.108Z,24.20
2018-08-24T19:25:31.718Z,24.10
2018-08-24T19:28:10.388Z,23.96
2018-08-24T19:33:49.856Z,24.63
2018-08-24T19:36:21.687Z,24.11
2018-08-24T19:38:52.992Z,23.50
2018-08-24T19:41:30.537Z,24.59
2018-08-24T19:44:01.795Z,24.49
2018-08-24T19:46:34.033Z,23.91
2018-08-24T19:49:12.603Z,23.99
2018-08-24T19:51:44.491Z,23.94
2018-08-24T19:54:16.977Z,23.54
2018-08-24T19:56:48.936Z,23.55
2018-08-24T19:59:21.270Z,24.58
2018-08-24T20:01:53.595Z,24.23
2018-08-24T20:04:26.791Z,23.83
2018-08-24T20:07:03.679Z,23.84
2018-08-24T20:09:39.935Z,23.82
2018-08-24T20:12:10.989Z,24.12
2018-08-24T20:14:47.197Z,24.58
2018-08-24T20:17:23.621Z,24.85
2018-08-24T20:19:54.651Z,23.79
2018-08-24T20:22:26.136Z,24.50
2018-08-24T20:24:58.399Z,24.05
2018-08-24T20:27:30.234Z,24.13
2018-08-24T20:30:01.787Z,24.06
2018-08-24T20:32:34.996Z,23.82
2018-08-24T20:35:06.276Z,23.72
2018-08-24T20:37:41.009Z,23.88
2018-08-24T20:40:12.459Z,24.06
2018-08-24T20:42:47.890Z,24.33
2018-08-24T20:45:21.544Z,24.50
2018-08-24T20:47:54.053Z,24.21
2018-08-24T20:50:26.409Z,24.11
2018-08-24T20:52:58.916Z,23.80
2018-08-24T20:55:32.830Z,23.87
2018-08-24T20:58:04.228Z,23.70
2018-08-24T21:00:38.264Z,23.37
2018-08-24T21:03:09.722Z,24.12
2018-08-24T21:05:40.900Z,24.74
2018-08-24T21:08:12.126Z,25.02
2018-08-24T21:10:47.882Z,24.37
2018-08-24T21:13:19.238Z,25.36
2018-08-24T21:15:52.642Z,25.36
2018-08-24T21:18:26.161Z,25.02
2018-08-24T21:21:00.616Z,25.82
2018-08-24T21:23:33.532Z,25.98
2018-08-24T21:26:05.493Z,25.97
2018-08-24T21:28:36.800Z,25.64
2018-08-24T21:31:07.846Z,26.42
2018-08-24T21:33:38.940Z,26.21
2018-08-24T21:36:10.545Z,26.53
2018-08-24T21:38:45.569Z,26.82
2018-08-24T21:41:16.643Z,26.86
2018-08-24T21:43:48.725Z,27.41
2018-08-24T21:46:20.685Z,26.62
2018-08-24T21:48:54.803Z,26.60
2018-08-24T21:51:25.845Z,27.33
2018-08-24T21:53:57.832Z,26.40
2018-08-24T21:56:32.532Z,26.53
2018-08-24T21:59:04.022Z,26.98
2018-08-24T22:01:36.551Z,26.97
2018-08-24T22:04:07.737Z,26.90
2018-08-24T22:06:38.814Z,27.06
2018-08-24T22:09:11.500Z,26.99
2018-08-24T22:11:43.295Z,27.48
2018-08-24T22:14:16.277Z,27.20
2018-08-24T22:16:49.239Z,26.54
2018-08-24T22:19:21.069Z,27.27
2018-08-24T22:21:56.573Z,26.90
2018-08-24T22:24:30.254Z,27.52
2018-08-24T22:27:03.719Z,27.20
2018-08-24T22:29:37.189Z,26.94
2018-08-24T22:32:10.279Z,27.81
2018-08-24T22:34:42.587Z,27.26
2018-08-24T22:37:16.146Z,26.97
2018-08-24T22:39:47.131Z,27.14
2018-08-24T22:42:21.581Z,26.82
2018-08-24T22:44:53.213Z,27.43
2018-08-24T22:47:25.884Z,27.36
2018-08-24T22:49:58.207Z,27.56
2018-08-24T22:52:33.176Z,27.90
2018-08-24T22:55:07.007Z,27.53
2018-08-24T22:57:38.140Z,27.75
2018-08-24T23:00:13.155Z,27.68
2018-08-24T23:02:57.213Z,28.71
2018-08-24T23:05:29.958Z,29.15
2018-08-24T23:08:03.867Z,29.13
2018-08-24T23:10:36.896Z,28.24
2018-08-24T23:13:08.519Z,28.14
2018-08-24T23:15:40.673Z,29.16
2018-08-24T23:18:11.655Z,28.35
2018-08-24T23:20:43.313Z,28.68
2018-08-24T23:23:15.610Z,28.37
2018-08-24T23:25:46.385Z,28.10
2018-08-24T23:28:18.981Z,28.68
2018-08-24T23:30:51.224Z,28.35
2018-08-24T23:33:22.258Z,28.14
2018-08-24T23:35:57.532Z,28.80
2018-08-24T23:38:28.904Z,28.85
2018-08-24T23:40:59.951Z,28.70
2018-08-24T23:43:30.929Z,29.29
2018-08-24T23:46:02.263Z,28.81
2018-08-24T23:48:33.895Z,29.37
2018-08-24T23:51:04.992Z,28.66
2018-08-24T23:53:36.084Z,28.29
2018-08-24T23:56:07.312Z,28.76
2018-08-24T23:58:41.964Z,28.77
